createdAt,value
2018-12-01T00:00:40.759Z,4.30
2018-12-01T00:01:40.739Z,3.80
2018-12-01T00:02:40.020Z,4.20
2018-12-01T00:03:40.737Z,4.40
2018-12-01T00:04:40.017Z,3.80
2018-12-01T00:05:40.014Z,4.20
2018-12-01T00:06:40.737Z,4.80
2018-12-01T00:07:39.968Z,4.30
2018-12-01T00:08:40.741Z,4.50
2018-12-01T00:09:39.946Z,4.00
2018-12-01T00:10:40.092Z,4.50
2018-12-01T00:11:44.766Z,4.50
2018-12-01T00:12:39.913Z,4.20
2018-12-01T00:13:46.736Z,4.30
2018-12-01T00:14:39.892Z,4.60
2018-12-01T00:15:39.914Z,4.30
2018-12-01T00:16:40.739Z,4.60
2018-12-01T00:17:41.767Z,4.40
2018-12-01T00:18:41.755Z,4.30
2018-12-01T00:19:39.884Z,4.10
2018-12-01T00:20:40.249Z,4.80
2018-12-01T00:21:40.743Z,4.70
2018-12-01T00:22:39.810Z,4.50
2018-12-01T00:23:40.752Z,4.90
2018-12-01T00:24:39.786Z,4.10
2018-12-01T00:25:40.251Z,3.90
2018-12-01T00:26:50.799Z,3.70
2018-12-01T00:27:40.737Z,4.20
2018-12-01T00:28:40.742Z,3.50
2018-12-01T00:29:40.239Z,4.10
2018-12-01T00:30:40.738Z,4.80
2018-12-01T00:31:39.764Z,4.30
2018-12-01T00:32:44.257Z,4.20
2018-12-01T00:33:40.243Z,4.00
2018-12-01T00:34:40.253Z,4.60
2018-12-01T00:35:40.244Z,4.20
2018-12-01T00:36:39.748Z,4.60
2018-12-01T00:37:39.650Z,4.40
2018-12-01T00:38:41.246Z,4.00
2018-12-01T00:39:39.625Z,4.10
2018-12-01T00:40:40.241Z,4.80
2018-12-01T00:41:39.622Z,4.50
2018-12-01T00:42:39.748Z,4.30
2018-12-01T00:43:40.237Z,4.80
2018-12-01T00:44:39.585Z,4.90
2018-12-01T00:45:39.751Z,5.10
2018-12-01T00:46:39.552Z,4.60
2018-12-01T00:47:39.545Z,4.70
2018-12-01T00:48:39.529Z,4.80
2018-12-01T00:49:40.240Z,5.20
2018-12-01T00:50:39.522Z,4.10
2018-12-01T00:51:40.243Z,4.90
2018-12-01T00:52:40.457Z,5.20
2018-12-01T00:53:39.504Z,4.70
2018-12-01T00:54:39.469Z,5.10
2018-12-01T00:55:39.753Z,5.10
2018-12-01T00:56:39.444Z,5.10
2018-12-01T00:57:39.446Z,4.60
2018-12-01T00:58:44.250Z,4.40
2018-12-01T00:59:41.244Z,5.00
2018-12-01T01:00:39.768Z,5.40
2018-12-01T01:01:40.240Z,5.20
2018-12-01T01:02:39.390Z,5.00
2018-12-01T01:03:41.243Z,5.50
2018-12-01T01:04:42.241Z,5.20
2018-12-01T01:05:41.251Z,5.30
2018-12-01T01:06:39.330Z,5.20
2018-12-01T01:07:39.324Z,5.10
2018-12-01T01:08:42.244Z,5.10
2018-12-01T01:09:41.246Z,5.70
2018-12-01T01:10:40.251Z,4.50
2018-12-01T01:11:41.255Z,4.80
2018-12-01T01:12:39.268Z,5.10
2018-12-01T01:13:39.273Z,4.10
2018-12-01T01:14:39.247Z,4.60
2018-12-01T01:15:39.750Z,5.10
2018-12-01T01:16:40.766Z,4.80
2018-12-01T01:17:39.752Z,4.50
2018-12-01T01:18:39.208Z,4.60
2018-12-01T01:19:39.749Z,5.20
2018-12-01T01:20:39.739Z,5.10
2018-12-01T01:21:40.240Z,4.90
2018-12-01T01:22:39.188Z,4.90
2018-12-01T01:23:41.741Z,4.30
2018-12-01T01:24:39.143Z,4.40
2018-12-01T01:25:39.160Z,4.40
2018-12-01T01:26:39.126Z,5.80
2018-12-01T01:27:40.769Z,4.50
2018-12-01T01:28:39.099Z,4.60
2018-12-01T01:29:40.775Z,4.10
2018-12-01T01:30:39.250Z,5.40
2018-12-01T01:31:39.068Z,4.10
2018-12-01T01:32:39.749Z,4.00
2018-12-01T01:33:39.044Z,4.70
2018-12-01T01:34:39.737Z,4.80
2018-12-01T01:35:50.102Z,4.70
2018-12-01T01:36:39.054Z,5.20
2018-12-01T01:37:39.010Z,4.50
2018-12-01T01:38:38.997Z,4.90
2018-12-01T01:39:38.981Z,4.90
2018-12-01T01:40:39.277Z,5.30
2018-12-01T01:41:38.957Z,4.50
2018-12-01T01:42:38.951Z,4.30
2018-12-01T01:43:38.937Z,4.40
2018-12-01T01:44:39.742Z,4.70
2018-12-01T01:45:46.762Z,4.20
2018-12-01T01:46:39.739Z,5.00
2018-12-01T01:47:38.891Z,4.20
2018-12-01T01:48:38.894Z,5.20
2018-12-01T01:49:39.740Z,5.20
2018-12-01T01:50:39.261Z,4.30
2018-12-01T01:51:39.758Z,4.40
2018-12-01T01:52:38.841Z,4.60
2018-12-01T01:53:38.830Z,4.00
2018-12-01T01:54:38.825Z,4.10
2018-12-01T01:55:38.821Z,5.00
2018-12-01T01:56:38.874Z,4.10
2018-12-01T01:57:39.011Z,4.20
2018-12-01T01:58:43.741Z,4.40
2018-12-01T01:59:40.768Z,5.10
2018-12-01T02:00:39.763Z,4.40
2018-12-01T02:01:38.738Z,4.30
2018-12-01T02:02:38.731Z,4.40
2018-12-01T02:03:38.716Z,5.00
2018-12-01T02:04:39.239Z,3.70
2018-12-01T02:05:38.763Z,4.30
2018-12-01T02:06:38.684Z,4.20
2018-12-01T02:07:40.256Z,4.30
2018-12-01T02:08:38.669Z,3.80
2018-12-01T02:09:38.651Z,4.10
2018-12-01T02:10:39.240Z,4.20
2018-12-01T02:11:40.275Z,3.70
2018-12-01T02:12:38.620Z,4.00
2018-12-01T02:13:38.607Z,4.10
2018-12-01T02:14:39.254Z,3.80
2018-12-01T02:15:38.601Z,3.90
2018-12-01T02:16:38.592Z,3.60
2018-12-01T02:17:39.239Z,3.30
2018-12-01T02:18:38.562Z,3.40
2018-12-01T02:19:40.270Z,3.90
2018-12-01T02:20:39.240Z,3.90
2018-12-01T02:21:38.783Z,3.90
2018-12-01T02:22:38.518Z,3.70
2018-12-01T02:23:38.501Z,3.80
2018-12-01T02:24:40.273Z,4.00
2018-12-01T02:25:39.244Z,4.50
2018-12-01T02:26:41.763Z,3.50
2018-12-01T02:27:39.241Z,3.90
2018-12-01T02:28:40.258Z,3.70
2018-12-01T02:29:40.252Z,3.10
2018-12-01T02:30:45.240Z,3.10
2018-12-01T02:31:38.434Z,3.40
2018-12-01T02:32:38.406Z,3.60
2018-12-01T02:33:38.408Z,3.30
2018-12-01T02:34:40.254Z,3.20
2018-12-01T02:35:38.371Z,3.30
2018-12-01T02:36:39.272Z,3.00
2018-12-01T02:37:38.348Z,3.40
2018-12-01T02:38:38.344Z,3.60
2018-12-01T02:39:39.291Z,3.50
2018-12-01T02:40:45.267Z,3.60
2018-12-01T02:41:38.764Z,3.30
2018-12-01T02:42:38.296Z,3.60
2018-12-01T02:43:38.287Z,3.30
2018-12-01T02:44:38.275Z,3.20
2018-12-01T02:45:38.266Z,3.20
2018-12-01T02:46:38.269Z,3.20
2018-12-01T02:47:38.260Z,3.30
2018-12-01T02:48:38.233Z,3.10
2018-12-01T02:49:38.754Z,2.90
2018-12-01T02:50:38.212Z,2.90
2018-12-01T02:51:38.248Z,3.10
2018-12-01T02:52:38.190Z,3.10
2018-12-01T02:53:38.180Z,3.20
2018-12-01T02:54:38.746Z,2.90
2018-12-01T02:55:38.166Z,2.70
2018-12-01T02:56:38.162Z,3.30
2018-12-01T02:57:38.140Z,2.80
2018-12-01T02:58:38.739Z,3.30
2018-12-01T02:59:40.745Z,3.20
2018-12-01T03:00:38.325Z,3.10
2018-12-01T03:01:38.133Z,3.40
2018-12-01T03:02:38.086Z,3.00
2018-12-01T03:03:38.738Z,3.50
2018-12-01T03:04:38.064Z,3.40
2018-12-01T03:05:38.073Z,3.10
2018-12-01T03:06:38.263Z,3.70
2018-12-01T03:07:38.034Z,3.80
2018-12-01T03:08:38.020Z,3.20
2018-12-01T03:09:38.015Z,2.80
2018-12-01T03:10:38.003Z,3.10
2018-12-01T03:11:38.002Z,3.90
2018-12-01T03:12:37.995Z,3.10
2018-12-01T03:13:39.738Z,3.00
2018-12-01T03:14:37.965Z,3.20
2018-12-01T03:15:37.949Z,3.70
2018-12-01T03:16:37.963Z,3.30
2018-12-01T03:17:38.752Z,3.60
2018-12-01T03:18:37.924Z,3.40
2018-12-01T03:19:37.921Z,2.90
2018-12-01T03:20:37.895Z,3.20
2018-12-01T03:21:37.980Z,3.20
2018-12-01T03:22:39.775Z,3.00
2018-12-01T03:23:38.742Z,3.20
2018-12-01T03:24:37.850Z,2.80
2018-12-01T03:25:37.846Z,3.30
2018-12-01T03:26:38.264Z,2.90
2018-12-01T03:27:37.817Z,3.50
2018-12-01T03:28:39.789Z,3.70
2018-12-01T03:29:37.803Z,4.00
2018-12-01T03:30:38.747Z,3.50
2018-12-01T03:31:37.795Z,3.00
2018-12-01T03:32:38.786Z,3.30
2018-12-01T03:33:37.763Z,3.30
2018-12-01T03:34:37.742Z,3.40
2018-12-01T03:35:37.740Z,3.40
2018-12-01T03:36:37.738Z,3.50
2018-12-01T03:37:38.749Z,3.10
2018-12-01T03:38:39.274Z,3.50
2018-12-01T03:39:37.696Z,3.00
2018-12-01T03:40:38.264Z,3.80
2018-12-01T03:41:37.695Z,3.30
2018-12-01T03:42:37.707Z,3.30
2018-12-01T03:43:39.270Z,3.60
2018-12-01T03:44:38.239Z,4.00
2018-12-01T03:45:38.244Z,3.40
2018-12-01T03:46:37.627Z,3.30
2018-12-01T03:47:37.621Z,3.50
2018-12-01T03:48:37.761Z,3.60
2018-12-01T03:49:37.599Z,3.80
2018-12-01T03:50:37.594Z,3.50
2018-12-01T03:51:38.239Z,3.50
2018-12-01T03:52:37.560Z,3.10
2018-12-01T03:53:37.541Z,3.10
2018-12-01T03:54:37.749Z,3.90
2018-12-01T03:55:38.239Z,3.70
2018-12-01T03:56:37.510Z,3.30
2018-12-01T03:57:37.752Z,4.10
2018-12-01T03:58:40.240Z,4.10
2018-12-01T03:59:37.493Z,3.50
2018-12-01T04:00:37.476Z,4.20
2018-12-01T04:01:37.455Z,4.10
2018-12-01T04:02:37.753Z,3.20
2018-12-01T04:03:37.433Z,3.80
2018-12-01T04:04:42.275Z,3.60
2018-12-01T04:05:44.244Z,3.30
2018-12-01T04:06:42.270Z,3.40
2018-12-01T04:07:37.417Z,3.50
2018-12-01T04:08:42.269Z,3.30
2018-12-01T04:09:38.239Z,3.20
2018-12-01T04:10:59.241Z,3.70
2018-12-01T04:11:37.369Z,3.50
2018-12-01T04:12:37.351Z,3.70
2018-12-01T04:13:37.335Z,3.10
2018-12-01T04:14:37.323Z,3.40
2018-12-01T04:15:39.260Z,2.80
2018-12-01T04:16:37.743Z,3.30
2018-12-01T04:17:38.251Z,4.10
2018-12-01T04:18:37.277Z,3.40
2018-12-01T04:19:37.284Z,3.00
2018-12-01T04:20:38.239Z,3.70
2018-12-01T04:21:38.241Z,3.90
2018-12-01T04:22:37.305Z,3.50
2018-12-01T04:23:37.223Z,3.00
2018-12-01T04:24:37.741Z,3.20
2018-12-01T04:25:37.427Z,3.30
2018-12-01T04:26:37.194Z,3.90
2018-12-01T04:27:37.196Z,3.40
2018-12-01T04:28:37.744Z,3.40
2018-12-01T04:29:37.744Z,3.60
2018-12-01T04:30:37.766Z,3.60
2018-12-01T04:31:37.744Z,3.00
2018-12-01T04:32:37.255Z,3.20
2018-12-01T04:33:41.756Z,2.90
2018-12-01T04:34:37.744Z,3.30
2018-12-01T04:35:37.096Z,3.30
2018-12-01T04:36:38.765Z,3.70
2018-12-01T04:37:37.250Z,4.00
2018-12-01T04:38:37.082Z,3.50
2018-12-01T04:39:37.063Z,4.00
2018-12-01T04:40:37.043Z,3.40
2018-12-01T04:41:37.045Z,3.60
2018-12-01T04:42:37.036Z,2.90
2018-12-01T04:43:37.754Z,3.70
2018-12-01T04:44:37.740Z,3.60
2018-12-01T04:45:41.756Z,3.00
2018-12-01T04:46:37.217Z,3.50
2018-12-01T04:47:37.083Z,3.20
2018-12-01T04:48:36.956Z,2.80
2018-12-01T04:49:38.753Z,4.30
2018-12-01T04:50:37.754Z,3.60
2018-12-01T04:51:37.743Z,3.80
2018-12-01T04:52:37.738Z,3.20
2018-12-01T04:53:38.751Z,3.10
2018-12-01T04:54:37.748Z,3.40
2018-12-01T04:55:39.743Z,3.30
2018-12-01T04:56:36.871Z,3.80
2018-12-01T04:57:37.768Z,3.20
2018-12-01T04:58:37.255Z,3.80
2018-12-01T04:59:38.747Z,3.00
2018-12-01T05:00:37.743Z,4.10
2018-12-01T05:01:36.815Z,3.70
2018-12-01T05:02:47.835Z,3.70
2018-12-01T05:03:37.757Z,3.90
2018-12-01T05:04:36.782Z,3.60
2018-12-01T05:05:36.781Z,3.90
2018-12-01T05:06:37.747Z,3.40
2018-12-01T05:07:37.784Z,3.70
2018-12-01T05:08:37.262Z,3.70
2018-12-01T05:09:38.306Z,3.90
2018-12-01T05:10:36.722Z,3.50
2018-12-01T05:11:37.239Z,3.70
2018-12-01T05:12:39.261Z,4.10
2018-12-01T05:13:36.765Z,3.50
2018-12-01T05:14:36.674Z,3.60
2018-12-01T05:15:37.246Z,3.80
2018-12-01T05:16:37.242Z,3.90
2018-12-01T05:17:38.272Z,3.60
2018-12-01T05:18:38.257Z,4.00
2018-12-01T05:19:36.625Z,3.80
2018-12-01T05:20:38.276Z,3.50
2018-12-01T05:21:36.602Z,3.60
2018-12-01T05:22:37.253Z,3.70
2018-12-01T05:23:38.260Z,3.20
2018-12-01T05:24:37.240Z,3.90
2018-12-01T05:25:37.240Z,3.80
2018-12-01T05:26:39.262Z,3.50
2018-12-01T05:27:37.240Z,4.20
2018-12-01T05:28:38.472Z,3.50
2018-12-01T05:29:36.538Z,4.00
2018-12-01T05:30:38.285Z,3.90
2018-12-01T05:31:38.277Z,3.60
2018-12-01T05:32:36.491Z,3.60
2018-12-01T05:33:37.253Z,3.90
2018-12-01T05:34:36.467Z,4.10
2018-12-01T05:35:37.250Z,4.50
2018-12-01T05:36:36.443Z,3.60
2018-12-01T05:37:36.462Z,3.80
2018-12-01T05:38:36.420Z,3.80
2018-12-01T05:39:37.238Z,3.90
2018-12-01T05:40:36.435Z,3.70
2018-12-01T05:41:36.760Z,4.10
2018-12-01T05:42:36.378Z,3.70
2018-12-01T05:43:37.241Z,4.70
2018-12-01T05:44:36.370Z,4.00
2018-12-01T05:45:38.279Z,3.90
2018-12-01T05:46:36.832Z,3.60
2018-12-01T05:47:36.438Z,3.80
2018-12-01T05:48:36.312Z,3.70
2018-12-01T05:49:36.507Z,4.30
2018-12-01T05:50:36.290Z,3.70
2018-12-01T05:51:36.283Z,3.90
2018-12-01T05:52:37.256Z,3.70
2018-12-01T05:53:36.285Z,4.20
2018-12-01T05:54:38.276Z,3.50
2018-12-01T05:55:36.312Z,3.60
2018-12-01T05:56:37.782Z,4.00
2018-12-01T05:57:37.783Z,4.00
2018-12-01T05:58:36.752Z,3.90
2018-12-01T05:59:36.235Z,4.10
2018-12-01T06:00:38.787Z,3.80
2018-12-01T06:01:36.171Z,3.60
2018-12-01T06:02:36.160Z,4.60
2018-12-01T06:03:39.259Z,4.20
2018-12-01T06:04:36.751Z,4.30
2018-12-01T06:05:36.133Z,4.70
2018-12-01T06:06:36.743Z,4.00
2018-12-01T06:07:36.109Z,3.80
2018-12-01T06:08:36.262Z,3.80
2018-12-01T06:09:36.082Z,3.60
2018-12-01T06:10:36.117Z,4.10
2018-12-01T06:11:36.748Z,3.80
2018-12-01T06:12:36.742Z,4.10
2018-12-01T06:13:36.186Z,4.10
2018-12-01T06:14:37.060Z,3.40
2018-12-01T06:15:36.072Z,3.50
2018-12-01T06:16:36.083Z,4.10
2018-12-01T06:17:36.025Z,3.50
2018-12-01T06:18:36.040Z,4.10
2018-12-01T06:19:37.779Z,4.30
2018-12-01T06:20:36.788Z,3.70
2018-12-01T06:21:37.759Z,3.80
2018-12-01T06:22:40.766Z,4.20
2018-12-01T06:23:36.298Z,3.80
2018-12-01T06:24:35.926Z,3.70
2018-12-01T06:25:38.747Z,4.00
2018-12-01T06:26:37.749Z,3.50
2018-12-01T06:27:36.742Z,4.50
2018-12-01T06:28:43.750Z,4.50
2018-12-01T06:29:35.887Z,4.20
2018-12-01T06:30:35.858Z,3.80
2018-12-01T06:31:35.849Z,3.90
2018-12-01T06:32:35.833Z,3.80
2018-12-01T06:33:35.837Z,3.90
2018-12-01T06:34:35.821Z,3.80
2018-12-01T06:35:35.814Z,3.90
2018-12-01T06:36:36.807Z,3.90
2018-12-01T06:37:36.785Z,4.00
2018-12-01T06:38:36.764Z,4.00
2018-12-01T06:39:35.774Z,3.60
2018-12-01T06:40:38.809Z,3.40
2018-12-01T06:41:36.246Z,3.80
2018-12-01T06:42:35.761Z,3.40
2018-12-01T06:43:35.775Z,3.60
2018-12-01T06:44:36.783Z,4.60
2018-12-01T06:45:35.695Z,3.70
2018-12-01T06:46:35.691Z,3.80
2018-12-01T06:47:35.735Z,4.30
2018-12-01T06:48:40.775Z,3.70
2018-12-01T06:49:35.703Z,4.60
2018-12-01T06:50:35.695Z,4.20
2018-12-01T06:51:36.309Z,3.80
2018-12-01T06:52:35.662Z,3.80
2018-12-01T06:53:35.751Z,4.20
2018-12-01T06:54:36.240Z,3.90
2018-12-01T06:55:36.245Z,4.50
2018-12-01T06:56:36.260Z,3.90
2018-12-01T06:57:35.560Z,3.70
2018-12-01T06:58:35.613Z,4.00
2018-12-01T06:59:35.557Z,3.90
2018-12-01T07:00:35.610Z,3.40
2018-12-01T07:01:36.255Z,3.80
2018-12-01T07:02:36.253Z,4.40
2018-12-01T07:03:41.823Z,4.10
2018-12-01T07:04:42.248Z,3.60
2018-12-01T07:05:36.255Z,4.20
2018-12-01T07:06:35.522Z,4.00
2018-12-01T07:07:36.263Z,3.80
2018-12-01T07:08:35.464Z,4.00
2018-12-01T07:09:36.250Z,3.60
2018-12-01T07:10:35.427Z,3.70
2018-12-01T07:11:37.243Z,3.90
2018-12-01T07:12:36.241Z,3.70
2018-12-01T07:13:35.410Z,3.70
2018-12-01T07:14:35.955Z,3.50
2018-12-01T07:15:35.385Z,3.40
2018-12-01T07:16:36.277Z,3.90
2018-12-01T07:17:36.250Z,4.20
2018-12-01T07:18:36.238Z,3.60
2018-12-01T07:19:35.328Z,3.80
2018-12-01T07:20:35.314Z,3.70
2018-12-01T07:21:35.850Z,3.70
2018-12-01T07:22:35.356Z,3.50
2018-12-01T07:23:35.305Z,3.70
2018-12-01T07:24:35.825Z,3.70
2018-12-01T07:25:35.278Z,3.90
2018-12-01T07:26:35.280Z,3.40
2018-12-01T07:27:35.263Z,3.50
2018-12-01T07:28:35.245Z,3.60
2018-12-01T07:29:35.308Z,3.20
2018-12-01T07:30:35.257Z,3.40
2018-12-01T07:31:35.245Z,3.00
2018-12-01T07:32:35.241Z,3.50
2018-12-01T07:33:35.200Z,4.20
2018-12-01T07:34:35.356Z,3.80
2018-12-01T07:35:35.207Z,3.70
2018-12-01T07:36:35.156Z,3.60
2018-12-01T07:37:35.187Z,3.50
2018-12-01T07:38:35.147Z,3.40
2018-12-01T07:39:35.336Z,4.00
2018-12-01T07:40:35.131Z,3.90
2018-12-01T07:41:35.078Z,4.10
2018-12-01T07:42:35.068Z,3.50
2018-12-01T07:43:35.098Z,3.70
2018-12-01T07:44:35.058Z,3.50
2018-12-01T07:45:35.037Z,4.90
2018-12-01T07:46:35.045Z,3.90
2018-12-01T07:47:35.025Z,4.00
2018-12-01T07:48:35.000Z,4.20
2018-12-01T07:49:35.039Z,4.20
2018-12-01T07:50:34.991Z,3.80
2018-12-01T07:51:34.971Z,3.80
2018-12-01T07:52:34.993Z,4.30
2018-12-01T07:53:34.959Z,3.60
2018-12-01T07:54:34.949Z,3.80
2018-12-01T07:55:34.938Z,3.80
2018-12-01T07:56:34.913Z,4.20
2018-12-01T07:57:34.924Z,4.00
2018-12-01T07:58:34.950Z,3.90
2018-12-01T07:59:34.959Z,3.70
2018-12-01T08:00:34.918Z,4.40
2018-12-01T08:01:34.888Z,3.80
2018-12-01T08:02:34.880Z,3.70
2018-12-01T08:03:34.850Z,4.10
2018-12-01T08:04:34.831Z,3.60
2018-12-01T08:05:35.621Z,4.20
2018-12-01T08:06:34.810Z,3.80
2018-12-01T08:07:34.794Z,4.30
2018-12-01T08:08:34.799Z,3.40
2018-12-01T08:09:34.848Z,3.60
2018-12-01T08:10:34.832Z,3.50
2018-12-01T08:11:35.316Z,4.00
2018-12-01T08:12:34.750Z,3.30
2018-12-01T08:13:34.737Z,3.70
2018-12-01T08:14:34.799Z,3.70
2018-12-01T08:15:34.725Z,3.60
2018-12-01T08:16:34.715Z,4.00
2018-12-01T08:17:35.730Z,3.40
2018-12-01T08:18:34.676Z,3.60
2018-12-01T08:19:34.764Z,3.80
2018-12-01T08:20:34.653Z,3.50
2018-12-01T08:21:34.642Z,3.50
2018-12-01T08:22:34.632Z,3.60
2018-12-01T08:23:34.620Z,3.30
2018-12-01T08:24:34.775Z,4.00
2018-12-01T08:25:34.604Z,3.70
2018-12-01T08:26:34.586Z,4.20
2018-12-01T08:27:34.577Z,3.80
2018-12-01T08:28:34.565Z,3.20
2018-12-01T08:29:34.802Z,3.60
2018-12-01T08:30:34.542Z,3.30
2018-12-01T08:31:34.532Z,3.50
2018-12-01T08:32:34.526Z,3.80
2018-12-01T08:33:34.507Z,3.90
2018-12-01T08:34:34.510Z,3.70
2018-12-01T08:35:34.499Z,3.70
2018-12-01T08:36:34.475Z,4.20
2018-12-01T08:37:34.472Z,3.40
2018-12-01T08:38:34.474Z,4.00
2018-12-01T08:39:34.457Z,4.10
2018-12-01T08:40:34.430Z,4.50
2018-12-01T08:41:34.428Z,4.00
2018-12-01T08:42:34.408Z,3.40
2018-12-01T08:43:34.400Z,3.50
2018-12-01T08:44:34.401Z,4.00
2018-12-01T08:45:34.773Z,3.70
2018-12-01T08:46:34.366Z,4.20
2018-12-01T08:47:34.354Z,3.70
2018-12-01T08:48:34.345Z,3.50
2018-12-01T08:49:34.334Z,3.70
2018-12-01T08:50:34.331Z,3.80
2018-12-01T08:51:34.786Z,4.10
2018-12-01T08:52:34.301Z,3.30
2018-12-01T08:53:34.289Z,3.60
2018-12-01T08:54:34.283Z,3.60
2018-12-01T08:55:34.267Z,4.00
2018-12-01T08:56:34.254Z,4.60
2018-12-01T08:57:34.268Z,3.20
2018-12-01T08:58:34.233Z,4.00
2018-12-01T08:59:34.221Z,3.80
2018-12-01T09:00:34.220Z,4.50
2018-12-01T09:01:34.199Z,3.70
2018-12-01T09:02:34.188Z,3.80
2018-12-01T09:03:34.210Z,3.70
2018-12-01T09:04:34.168Z,3.30
2018-12-01T09:05:34.156Z,3.40
2018-12-01T09:06:34.149Z,3.60
2018-12-01T09:07:34.137Z,4.00
2018-12-01T09:08:34.123Z,4.10
2018-12-01T09:09:34.146Z,3.60
2018-12-01T09:10:34.135Z,3.50
2018-12-01T09:11:34.097Z,3.80
2018-12-01T09:12:34.089Z,4.20
2018-12-01T09:13:34.081Z,3.50
2018-12-01T09:14:34.063Z,3.50
2018-12-01T09:15:36.835Z,3.60
2018-12-01T09:16:34.038Z,3.40
2018-12-01T09:17:34.098Z,3.90
2018-12-01T09:18:34.050Z,3.90
2018-12-01T09:19:34.005Z,3.90
2018-12-01T09:20:34.014Z,3.60
2018-12-01T09:21:33.981Z,3.90
2018-12-01T09:22:33.972Z,3.80
2018-12-01T09:23:33.962Z,4.10
2018-12-01T09:24:33.972Z,3.70
2018-12-01T09:25:33.953Z,3.70
2018-12-01T09:26:33.942Z,3.90
2018-12-01T09:27:33.917Z,3.00
2018-12-01T09:28:33.923Z,3.70
2018-12-01T09:29:33.898Z,3.60
2018-12-01T09:30:33.902Z,3.50
2018-12-01T09:31:33.878Z,4.20
2018-12-01T09:32:33.875Z,3.70
2018-12-01T09:33:33.860Z,3.60
2018-12-01T09:34:34.785Z,3.60
2018-12-01T09:35:34.314Z,4.10
2018-12-01T09:36:33.853Z,4.10
2018-12-01T09:37:33.878Z,4.10
2018-12-01T09:38:33.899Z,3.50
2018-12-01T09:39:33.852Z,3.90
2018-12-01T09:40:34.185Z,3.70
2018-12-01T09:41:33.838Z,4.10
2018-12-01T09:42:33.786Z,3.50
2018-12-01T09:43:33.751Z,3.60
2018-12-01T09:44:33.743Z,4.00
2018-12-01T09:45:33.734Z,4.20
2018-12-01T09:46:33.769Z,4.40
2018-12-01T09:47:33.707Z,4.00
2018-12-01T09:48:33.701Z,4.00
2018-12-01T09:49:33.685Z,3.10
2018-12-01T09:50:33.676Z,3.30
2018-12-01T09:51:33.691Z,4.00
2018-12-01T09:52:33.764Z,3.40
2018-12-01T09:53:33.646Z,3.80
2018-12-01T09:54:33.634Z,3.80
2018-12-01T09:55:33.620Z,3.80
2018-12-01T09:56:33.612Z,3.60
2018-12-01T09:57:33.603Z,3.40
2018-12-01T09:58:33.606Z,3.60
2018-12-01T09:59:33.579Z,3.40
2018-12-01T10:00:33.584Z,4.50
2018-12-01T10:01:33.560Z,3.30
2018-12-01T10:02:33.549Z,3.90
2018-12-01T10:03:33.544Z,3.60
2018-12-01T10:04:33.528Z,3.80
2018-12-01T10:05:33.540Z,3.70
2018-12-01T10:06:33.521Z,4.00
2018-12-01T10:07:33.495Z,4.10
2018-12-01T10:08:33.486Z,4.30
2018-12-01T10:09:33.495Z,4.40
2018-12-01T10:10:33.480Z,4.00
2018-12-01T10:11:33.453Z,3.70
2018-12-01T10:12:33.447Z,4.00
2018-12-01T10:13:33.429Z,4.20
2018-12-01T10:14:33.420Z,4.40
2018-12-01T10:15:33.424Z,5.40
2018-12-01T10:16:33.398Z,4.10
2018-12-01T10:17:33.394Z,5.30
2018-12-01T10:18:33.381Z,3.80
2018-12-01T10:19:33.368Z,4.70
2018-12-01T10:20:33.376Z,4.10
2018-12-01T10:21:33.344Z,3.70
2018-12-01T10:22:33.339Z,4.50
2018-12-01T10:23:33.325Z,4.10
2018-12-01T10:24:33.316Z,4.20
2018-12-01T10:25:33.763Z,4.50
2018-12-01T10:26:33.297Z,3.80
2018-12-01T10:27:33.282Z,3.90
2018-12-01T10:28:33.275Z,4.40
2018-12-01T10:29:33.981Z,4.30
2018-12-01T10:30:33.764Z,4.10
2018-12-01T10:31:33.244Z,4.20
2018-12-01T10:32:33.239Z,4.40
2018-12-01T10:33:33.219Z,4.00
2018-12-01T10:34:33.218Z,4.30
2018-12-01T10:35:33.262Z,4.20
2018-12-01T10:36:33.190Z,3.80
2018-12-01T10:37:33.180Z,3.90
2018-12-01T10:38:33.163Z,4.40
2018-12-01T10:39:33.151Z,4.60
2018-12-01T10:40:33.167Z,4.00
2018-12-01T10:41:33.131Z,3.70
2018-12-01T10:42:33.129Z,3.70
2018-12-01T10:43:33.749Z,4.20
2018-12-01T10:44:33.151Z,5.50
2018-12-01T10:45:33.106Z,5.10
2018-12-01T10:46:33.096Z,5.20
2018-12-01T10:47:33.069Z,4.30
2018-12-01T10:48:33.057Z,4.40
2018-12-01T10:49:33.057Z,4.10
2018-12-01T10:50:33.264Z,4.20
2018-12-01T10:51:33.024Z,3.80
2018-12-01T10:52:33.027Z,4.20
2018-12-01T10:53:33.000Z,4.40
2018-12-01T10:54:32.995Z,3.80
2018-12-01T10:55:32.988Z,3.60
2018-12-01T10:56:33.277Z,4.20
2018-12-01T10:57:32.987Z,4.10
2018-12-01T10:58:32.948Z,4.30
2018-12-01T10:59:33.010Z,4.20
2018-12-01T11:00:32.946Z,4.40
2018-12-01T11:01:33.264Z,3.80
2018-12-01T11:02:32.907Z,4.10
2018-12-01T11:03:32.918Z,4.60
2018-12-01T11:04:32.892Z,5.20
2018-12-01T11:05:32.890Z,5.30
2018-12-01T11:06:32.880Z,4.90
2018-12-01T11:07:32.873Z,4.60
2018-12-01T11:08:34.737Z,5.00
2018-12-01T11:09:32.835Z,4.90
2018-12-01T11:10:32.819Z,5.50
2018-12-01T11:11:32.834Z,4.80
2018-12-01T11:12:32.803Z,4.80
2018-12-01T11:13:33.266Z,4.70
2018-12-01T11:14:32.781Z,3.70
2018-12-01T11:15:32.767Z,3.90
2018-12-01T11:16:32.770Z,3.80
2018-12-01T11:17:32.746Z,4.20
2018-12-01T11:18:47.243Z,4.00
2018-12-01T11:19:32.739Z,4.20
2018-12-01T11:20:32.727Z,3.60
2018-12-01T11:21:32.702Z,3.80
2018-12-01T11:22:32.691Z,4.40
2018-12-01T11:23:32.700Z,4.00
2018-12-01T11:24:32.673Z,3.40
2018-12-01T11:25:32.671Z,3.90
2018-12-01T11:26:32.663Z,3.70
2018-12-01T11:27:32.862Z,4.00
2018-12-01T11:28:32.630Z,4.20
2018-12-01T11:29:32.620Z,4.30
2018-12-01T11:30:32.625Z,3.80
2018-12-01T11:31:32.608Z,3.50
2018-12-01T11:32:32.585Z,3.70
2018-12-01T11:33:32.584Z,4.00
2018-12-01T11:34:32.565Z,4.10
2018-12-01T11:35:32.551Z,4.10
2018-12-01T11:36:32.762Z,4.00
2018-12-01T11:37:32.529Z,4.00
2018-12-01T11:38:32.518Z,3.90
2018-12-01T11:39:32.516Z,3.70
2018-12-01T11:40:32.498Z,3.30
2018-12-01T11:41:32.501Z,4.10
2018-12-01T11:42:32.476Z,4.00
2018-12-01T11:43:32.467Z,3.30
2018-12-01T11:44:32.456Z,3.50
2018-12-01T11:45:32.445Z,3.50
2018-12-01T11:46:32.451Z,3.60
2018-12-01T11:47:32.428Z,3.60
2018-12-01T11:48:32.430Z,3.80
2018-12-01T11:49:32.400Z,3.70
2018-12-01T11:50:32.389Z,3.40
2018-12-01T11:51:32.413Z,3.70
2018-12-01T11:52:32.367Z,3.80
2018-12-01T11:53:32.360Z,3.70
2018-12-01T11:54:32.349Z,3.60
2018-12-01T11:55:32.335Z,3.00
2018-12-01T11:56:32.326Z,3.80
2018-12-01T11:57:32.346Z,3.30
2018-12-01T11:58:32.305Z,3.20
2018-12-01T11:59:32.295Z,3.40
2018-12-01T12:00:32.285Z,3.20
2018-12-01T12:01:32.274Z,3.20
2018-12-01T12:02:32.262Z,3.50
2018-12-01T12:03:32.281Z,3.60
2018-12-01T12:04:32.240Z,3.20
2018-12-01T12:05:32.230Z,3.20
2018-12-01T12:06:32.760Z,2.80
2018-12-01T12:07:32.740Z,2.80
2018-12-01T12:08:32.198Z,3.00
2018-12-01T12:09:32.404Z,3.10
2018-12-01T12:10:32.177Z,3.40
2018-12-01T12:11:32.190Z,3.20
2018-12-01T12:12:32.154Z,3.10
2018-12-01T12:13:32.145Z,2.70
2018-12-01T12:14:32.133Z,2.80
2018-12-01T12:15:32.134Z,2.70
2018-12-01T12:16:32.565Z,2.80
2018-12-01T12:17:32.102Z,3.00
2018-12-01T12:18:32.094Z,3.10
2018-12-01T12:19:32.087Z,2.80
2018-12-01T12:20:32.078Z,3.00
2018-12-01T12:21:32.069Z,2.90
2018-12-01T12:22:32.066Z,3.00
2018-12-01T12:23:32.040Z,2.80
2018-12-01T12:24:32.028Z,3.00
2018-12-01T12:25:32.016Z,2.70
2018-12-01T12:26:32.033Z,2.60
2018-12-01T12:27:32.005Z,2.00
2018-12-01T12:28:32.009Z,2.40
2018-12-01T12:29:31.978Z,2.40
2018-12-01T12:30:32.187Z,2.40
2018-12-01T12:31:31.954Z,2.70
2018-12-01T12:32:31.943Z,2.30
2018-12-01T12:33:31.953Z,2.30
2018-12-01T12:34:31.940Z,2.30
2018-12-01T12:35:31.914Z,2.40
2018-12-01T12:36:31.904Z,2.50
2018-12-01T12:37:31.892Z,2.20
2018-12-01T12:38:31.880Z,2.50
2018-12-01T12:39:31.884Z,2.60
2018-12-01T12:40:31.877Z,2.30
2018-12-01T12:41:31.848Z,2.30
2018-12-01T12:42:31.837Z,2.20
2018-12-01T12:43:31.827Z,2.50
2018-12-01T12:44:31.819Z,2.10
2018-12-01T12:45:31.816Z,2.10
2018-12-01T12:46:31.812Z,2.40
2018-12-01T12:47:31.789Z,2.10
2018-12-01T12:48:31.776Z,2.10
2018-12-01T12:49:31.766Z,2.00
2018-12-01T12:50:31.754Z,2.30
2018-12-01T12:51:31.973Z,2.00
2018-12-01T12:52:31.767Z,2.20
2018-12-01T12:53:31.721Z,2.40
2018-12-01T12:54:31.766Z,2.10
2018-12-01T12:55:31.700Z,1.90
2018-12-01T12:56:31.688Z,2.40
2018-12-01T12:57:31.685Z,2.00
2018-12-01T12:58:31.682Z,2.30
2018-12-01T12:59:31.656Z,2.10
2018-12-01T13:00:31.646Z,1.90
2018-12-01T13:01:31.634Z,1.90
2018-12-01T13:02:31.626Z,2.30
2018-12-01T13:03:31.642Z,2.20
2018-12-01T13:04:31.764Z,1.90
2018-12-01T13:05:31.594Z,2.40
2018-12-01T13:06:31.583Z,2.30
2018-12-01T13:07:31.578Z,2.10
2018-12-01T13:08:31.562Z,1.60
2018-12-01T13:09:31.570Z,2.10
2018-12-01T13:10:31.557Z,1.80
2018-12-01T13:11:31.531Z,1.70
2018-12-01T13:12:31.518Z,2.00
2018-12-01T13:13:31.510Z,1.90
2018-12-01T13:14:31.501Z,2.10
2018-12-01T13:15:31.502Z,1.80
2018-12-01T13:16:31.492Z,1.80
2018-12-01T13:17:31.469Z,2.00
2018-12-01T13:18:31.455Z,1.50